Date,TemperatureHighF,TemperatureAvgF,TemperatureLowF,DewpointHighF,DewpointAvgF,DewpointLowF,HumidityHigh,HumidityAvg,HumidityLow,PressureMaxIn,PressureMinIn,WindSpeedMaxMPH,WindSpeedAvgMPH,GustSpeedMaxMPH,PrecipitationSumIn
2013-1-1,31,16,2,15,2,-8,83,57,33,0.00,40.00,8,4,21,0.07
2013-1-2,42,23,14,14,-1,-9,48,35,24,0.00,40.00,13,5,19,0.01
2013-1-3,31,20,14,2,-8,-20,50,30,16,0.00,40.00,15,6,27,0.01
2013-1-4,41,25,14,6,-9,-20,34,22,10,0.00,40.00,11,3,18,0.00
2013-1-5,50,30,15,1,-4,-16,51,27,8,0.00,40.00,5,4,8,0.00
2013-1-6,42,30,17,7,0,-8,38,28,20,0.00,40.00,7,4,13,0.00
2013-1-7,42,30,24,10,5,-6,55,35,20,0.00,40.00,10,6,23,0.00
2013-1-8,52,35,27,20,10,-9,62,37,17,0.00,40.00,12,7,15,0.00
2013-1-9,49,36,28,17,14,10,55,42,23,0.00,40.00,9,5,20,0.00
2013-1-10,36,29,15,19,14,7,91,56,32,0.00,40.00,17,11,45,0.00
2013-1-11,16,10,0,12,3,-6,88,75,65,0.00,40.00,16,8,39,0.00
2013-1-12,19,6,-5,9,-3,-11,77,68,48,0.00,40.00,6,3,14,0.02
2013-1-13,19,5,-7,1,-5,-13,76,64,42,0.00,40.00,9,5,14,0.01
2013-1-14,18,5,-3,-2,-8,-17,76,56,26,0.00,40.00,9,6,16,0.01
2013-1-15,33,14,-5,8,-4,-18,67,47,28,0.00,40.00,7,4,13,0.02
2013-1-16,47,30,16,17,11,3,76,48,27,0.00,40.00,10,6,19,0.02
2013-1-17,44,32,25,13,7,3,47,36,22,0.00,40.00,10,7,28,0.01
2013-1-18,49,28,15,16,11,6,71,51,26,0.00,40.00,7,5,10,0.00
2013-1-19,48,33,18,6,-3,-9,56,23,11,0.00,40.00,12,8,18,0.00
2013-1-20,49,33,16,13,-3,-12,42,23,11,0.00,40.00,8,5,13,0.00
2013-1-21,49,37,28,4,-5,-12,28,16,12,0.00,40.00,12,7,17,0.00
2013-1-22,58,37,21,12,5,-2,51,30,12,0.00,40.00,9,5,14,0.00
2013-1-23,54,36,23,19,9,3,48,34,14,0.00,40.00,7,4,16,0.00
2013-1-24,42,37,34,35,28,18,100,72,42,0.00,40.00,9,6,32,0.12
2013-1-25,45,37,34,40,36,34,100,96,79,0.00,40.00,7,3,12,0.17
2013-1-26,36,34,32,36,34,32,100,99,97,0.00,40.00,14,7,25,1.73
2013-1-27,35,32,28,34,30,24,100,94,77,0.00,40.00,15,9,38,0.84
2013-1-28,28,20,8,25,18,4,96,90,84,0.00,40.00,14,8,39,0.01
2013-1-29,23,14,7,16,9,1,91,78,67,0.00,40.00,7,5,21,0.07
2013-1-30,40,25,13,24,16,8,82,70,51,0.00,40.00,5,4,14,0.32
2013-1-31,47,34,21,28,18,7,79,53,24,0.00,40.00,10,5,13,0.01
2013-2-1,51,32,15,26,13,5,77,48,20,0.00,40.00,6,4,10,0.01
2013-2-2,50,33,20,23,14,6,64,46,19,0.00,40.00,7,4,10,0.00
2013-2-3,36,32,28,31,21,15,83,64,42,0.00,40.00,7,3,13,0.01
2013-2-4,50,34,20,30,18,7,78,54,28,0.00,40.00,9,5,12,0.01
2013-2-5,54,35,21,22,14,6,68,44,23,0.00,40.00,8,5,12,0.00
2013-2-6,46,34,27,26,20,15,68,55,39,0.00,40.00,9,6,20,0.00
2013-2-7,47,31,17,24,19,14,87,64,38,0.00,40.00,8,5,16,0.00
2013-2-8,34,28,20,25,17,7,78,63,35,0.00,40.00,13,8,38,0.00
2013-2-9,22,19,17,16,15,12,90,86,72,0.00,40.00,10,6,27,0.00
2013-2-10,19,16,12,16,14,9,90,88,87,0.00,40.00,11,8,25,0.00
2013-2-11,25,13,1,22,10,-4,89,86,79,0.00,40.00,9,4,13,0.01
2013-2-12,32,15,2,25,10,-4,86,79,73,0.00,40.00,11,6,15,0.39
2013-2-13,41,26,13,28,18,8,83,73,56,0.00,40.00,9,3,13,0.11
2013-2-14,44,31,18,22,15,8,84,54,37,0.00,40.00,8,5,19,0.05
2013-2-15,49,33,19,16,2,-5,65,29,11,0.00,40.00,10,5,17,0.00
2013-2-16,54,33,15,13,3,-13,51,33,7,0.00,40.00,7,4,10,0.00
2013-2-17,46,35,24,10,6,1,47,30,19,0.00,40.00,14,8,32,0.00
2013-2-18,46,31,18,17,10,6,59,43,23,0.00,40.00,8,4,14,0.00
2013-2-19,43,30,19,14,9,7,62,42,27,0.00,40.00,9,5,31,0.00
2013-2-20,36,24,19,21,18,12,93,82,50,0.00,40.00,11,6,33,0.06
2013-2-21,29,21,14,22,17,8,93,84,69,0.00,40.00,10,6,19,0.12
2013-2-22,34,19,3,13,4,-6,76,53,34,0.00,40.00,10,5,20,0.05
2013-2-23,40,25,16,18,12,4,80,57,37,0.00,40.00,14,7,30,0.01
2013-2-24,31,18,7,9,-1,-6,73,45,29,0.00,40.00,8,6,22,0.00
2013-2-25,41,28,16,9,1,-4,44,32,19,0.00,40.00,14,7,23,0.00
2013-2-26,38,25,16,4,-3,-8,47,30,15,0.00,40.00,12,6,23,0.00
2013-2-27,37,22,9,3,-3,-8,50,34,22,0.00,40.00,12,5,18,0.00
2013-2-28,43,28,11,9,0,-7,45,30,17,0.00,40.00,11,6,19,0.00
2013-3-1,56,37,26,21,17,9,64,46,23,0.00,40.00,9,5,16,0.00
2013-3-2,57,41,25,21,18,9,65,42,15,0.00,40.00,8,5,19,0.00
2013-3-3,48,40,35,26,20,15,57,44,34,0.00,40.00,17,10,33,0.00
2013-3-4,52,37,26,29,22,18,72,55,39,0.00,40.00,12,6,35,0.00
2013-3-5,53,37,22,20,17,11,78,47,27,0.00,40.00,8,4,15,0.00
2013-3-6,52,40,32,25,19,11,69,45,25,0.00,40.00,11,8,33,0.00
2013-3-7,52,40,32,22,17,9,63,42,20,0.00,40.00,10,7,31,0.00
2013-3-8,35,28,19,30,24,17,97,85,49,0.00,40.00,11,6,27,0.00
2013-3-9,32,24,19,29,22,17,95,92,89,0.00,40.00,10,6,26,0.13
2013-3-10,47,32,21,28,18,12,89,59,32,0.00,40.00,10,5,18,0.46
2013-3-11,52,39,20,24,12,-5,58,35,12,0.00,40.00,9,5,13,0.08
2013-3-12,56,41,27,26,20,11,69,44,30,0.00,40.00,11,5,16,0.00
2013-3-13,61,42,26,27,21,16,77,49,26,0.00,40.00,10,5,13,0.00
2013-3-14,66,47,33,21,17,13,47,32,16,0.00,40.00,10,5,13,0.00
2013-3-15,65,50,32,25,20,16,58,33,19,0.00,40.00,12,7,22,0.00
2013-3-16,62,48,32,29,21,12,67,36,23,0.00,40.00,11,6,30,0.00
2013-3-17,55,45,39,14,7,0,34,22,11,0.00,40.00,13,9,32,0.00
2013-3-18,53,43,36,9,2,-3,31,18,14,0.00,40.00,13,7,29,0.00
2013-3-19,52,43,30,20,12,-1,66,30,17,0.00,40.00,9,4,17,0.00
2013-3-20,50,41,30,25,20,17,66,43,31,0.00,40.00,13,7,34,0.00
2013-3-21,53,43,37,25,17,7,60,38,15,0.00,40.00,12,8,26,0.00
2013-3-22,52,37,26,14,3,-14,59,30,8,0.00,40.00,17,8,34,0.00
2013-3-23,38,29,17,1,-5,-15,41,24,11,0.00,40.00,16,7,32,0.00
2013-3-24,48,32,17,4,-2,-8,44,25,13,0.00,40.00,7,5,17,0.00
2013-3-25,54,35,19,15,7,0,51,34,19,0.00,40.00,8,4,20,0.00
2013-3-26,53,41,29,14,12,9,54,31,21,0.00,40.00,12,7,34,0.00
2013-3-27,56,41,26,16,14,10,58,36,17,0.00,40.00,9,5,23,0.00
2013-3-28,57,49,40,23,20,17,43,32,25,0.00,40.00,9,6,23,0.00
2013-3-29,61,47,35,27,22,18,61,40,19,0.00,40.00,10,6,17,0.00
2013-3-30,57,45,32,28,23,-100,71,47,29,0.00,40.00,7,4,12,0.01
2013-3-31,58,47,31,28,24,19,75,43,25,0.00,40.00,8,5,25,0.01
2013-4-1,54,43,34,29,19,3,69,43,13,0.00,40.00,15,10,36,0.00
2013-4-2,47,38,32,26,24,21,72,57,44,0.00,40.00,9,6,21,0.00
2013-4-3,59,44,32,23,20,11,68,42,21,0.00,40.00,9,5,16,0.00
2013-4-4,64,48,30,20,16,13,58,32,15,0.00,40.00,7,5,20,0.00
2013-4-5,63,50,43,27,20,16,45,32,18,0.00,40.00,14,8,32,0.00
2013-4-6,61,49,37,26,22,18,57,35,24,0.00,40.00,11,7,24,0.00
2013-4-7,60,47,31,25,18,3,64,35,15,0.00,40.00,11,6,29,0.00
2013-4-8,43,34,24,31,26,19,95,75,40,0.00,40.00,17,9,42,0.06
2013-4-9,36,27,22,24,20,16,93,77,53,0.00,40.00,7,4,19,0.19
2013-4-10,46,33,19,23,16,11,86,52,31,0.00,40.00,10,6,18,0.04
2013-4-11,51,44,37,25,20,14,45,38,32,0.00,40.00,11,6,23,0.00
2013-4-12,60,46,34,26,20,14,54,38,20,0.00,40.00,7,4,14,0.00
2013-4-13,60,46,30,24,20,16,66,37,20,0.00,40.00,16,10,47,0.00
2013-4-14,61,48,39,26,23,21,52,39,22,0.00,40.00,18,12,44,0.00
2013-4-15,58,44,35,30,25,19,70,50,23,0.00,40.00,17,11,45,0.00
2013-4-16,42,35,25,31,21,9,81,60,34,0.00,40.00,15,10,39,0.00
2013-4-17,36,26,20,18,12,4,83,58,37,0.00,40.00,9,5,18,0.01
2013-4-18,46,29,17,6,2,-3,48,33,18,0.00,40.00,8,5,21,0.01
2013-4-19,55,36,20,10,6,1,52,30,16,0.00,40.00,9,6,20,0.00
2013-4-20,59,45,28,18,13,6,47,29,19,0.00,40.00,9,6,26,0.00
2013-4-21,63,48,30,23,15,8,55,29,14,0.00,40.00,11,6,30,0.00
2013-4-22,66,53,42,19,14,9,28,21,14,0.00,40.00,16,8,38,0.00
2013-4-23,56,44,29,18,11,3,39,27,15,0.00,40.00,14,5,31,0.00
2013-4-24,62,43,25,4,1,-5,35,19,9,0.00,40.00,8,5,15,0.00
2013-4-25,58,47,30,21,13,4,41,26,20,0.00,40.00,9,5,19,0.00
2013-4-26,63,49,31,22,11,0,47,23,10,0.00,40.00,7,4,19,0.00
2013-4-27,66,52,41,14,9,4,31,18,10,0.00,40.00,11,6,16,0.00
2013-4-28,72,54,33,17,13,9,42,22,11,0.00,40.00,8,5,17,0.00
2013-4-29,73,60,53,19,14,10,21,16,11,0.00,40.00,10,6,27,0.00
2013-4-30,72,62,52,15,9,6,19,13,9,0.00,40.00,14,11,42,0.00
2013-5-1,66,50,35,20,9,-7,47,21,7,0.00,40.00,12,7,30,0.00
2013-5-2,50,39,28,8,3,-6,35,22,14,0.00,40.00,11,8,35,0.00
2013-5-3,61,46,34,7,0,-6,19,14,8,0.00,40.00,13,6,19,0.00
2013-5-4,67,53,33,9,5,1,27,15,9,0.00,40.00,8,5,26,0.00
2013-5-5,55,47,40,24,17,6,39,30,16,0.00,40.00,7,4,23,0.00
2013-5-6,52,44,38,38,26,16,72,49,31,0.00,40.00,8,5,21,0.02
2013-5-7,50,39,31,35,30,22,96,73,33,0.00,40.00,10,7,25,0.03
2013-5-8,55,38,31,34,30,27,97,76,36,0.00,40.00,10,5,16,0.12
2013-5-9,55,40,32,37,31,27,92,70,38,0.00,40.00,8,4,12,0.04
2013-5-10,61,48,34,38,29,-100,91,56,25,0.00,40.00,14,6,25,0.05
2013-5-11,64,50,39,35,27,-100,87,46,24,0.00,40.00,7,5,21,0.05
2013-5-12,72,55,38,29,24,20,54,33,18,0.00,40.00,9,5,15,0.00
2013-5-13,75,57,40,27,22,19,47,29,13,0.00,40.00,9,5,15,0.00
2013-5-14,80,61,47,27,23,21,40,25,12,0.00,40.00,9,5,26,0.00
2013-5-15,72,60,51,25,17,8,31,20,11,0.00,40.00,14,8,39,0.00
2013-5-16,72,50,39,24,0,-100,44,25,11,0.00,40.00,12,6,28,0.00
2013-5-17,63,52,48,25,15,-100,38,28,17,0.00,40.00,12,8,34,0.00
2013-5-18,59,50,41,31,27,23,57,41,25,0.00,40.00,12,6,29,0.00
2013-5-19,60,50,35,31,25,17,70,40,22,0.00,40.00,14,7,28,0.00
2013-5-20,55,45,35,27,24,19,57,44,29,0.00,40.00,10,5,16,0.00
2013-5-21,67,53,33,29,21,12,66,33,13,0.00,40.00,10,6,21,0.00
2013-5-22,70,58,45,26,18,12,34,22,12,0.00,40.00,17,8,38,0.00
2013-5-23,69,57,47,20,16,9,34,21,11,0.00,40.00,14,9,32,0.00
2013-5-24,70,56,43,16,9,-1,25,16,9,0.00,40.00,11,7,31,0.00
2013-5-25,71,57,47,20,14,10,32,19,10,0.00,40.00,10,7,32,0.00
2013-5-26,69,57,47,19,15,11,27,20,13,0.00,40.00,11,7,29,0.00
2013-5-27,73,57,43,23,16,10,38,21,13,0.00,40.00,11,6,26,0.00
2013-5-28,63,54,45,28,24,19,41,31,25,0.00,40.00,13,7,38,0.00
2013-5-29,66,52,35,27,23,14,65,35,18,0.00,40.00,12,7,41,0.00
2013-5-30,72,59,47,32,24,16,49,28,14,0.00,40.00,18,8,36,0.00
2013-5-31,74,60,42,38,24,1,63,30,10,0.00,40.00,12,5,20,0.00
2013-6-1,76,61,48,16,5,-9,18,11,7,0.00,40.00,12,6,19,0.00
2013-6-2,79,65,48,27,18,10,25,17,11,0.00,40.00,9,6,21,0.00
2013-6-3,79,65,55,33,26,19,37,24,15,0.00,40.00,13,6,29,0.00
2013-6-4,78,62,43,30,21,16,50,23,10,0.00,40.00,11,6,21,0.00
2013-6-5,79,66,56,32,24,15,29,21,13,0.00,40.00,9,5,19,0.00
2013-6-6,83,69,57,28,21,15,23,17,10,0.00,40.00,10,5,17,0.00
2013-6-7,83,70,60,27,20,13,20,15,10,0.00,40.00,12,7,19,0.00
2013-6-8,85,74,65,27,22,15,19,15,11,0.00,40.00,11,6,27,0.00
2013-6-9,86,72,53,29,22,15,26,16,9,0.00,40.00,10,6,16,0.00
2013-6-10,80,69,51,23,13,6,33,13,6,0.00,40.00,12,7,34,0.00
2013-6-11,81,66,55,28,24,17,34,21,13,0.00,40.00,12,8,31,0.00
2013-6-12,81,70,55,29,25,21,31,19,13,0.00,40.00,12,7,26,0.00
2013-6-13,80,68,61,37,26,10,36,22,11,0.00,40.00,14,8,36,0.00
2013-6-14,81,67,45,26,19,12,32,17,9,0.00,40.00,10,6,32,0.00
2013-6-15,77,65,53,37,29,25,42,27,17,0.00,40.00,10,6,27,0.01
2013-6-16,80,64,47,29,24,15,45,24,12,0.00,40.00,10,5,22,0.01
2013-6-17,79,65,45,29,15,-1,39,16,6,0.00,40.00,8,5,19,0.00
2013-6-18,80,65,42,23,13,7,32,14,7,0.00,40.00,9,6,26,0.00
2013-6-19,78,65,55,18,15,12,21,15,9,0.00,40.00,12,9,39,0.00
2013-6-20,75,60,45,19,12,3,27,15,12,0.00,40.00,11,7,24,0.00
2013-6-22,79,68,57,23,20,17,24,16,12,0.00,40.00,8,6,21,0.00
2013-6-23,77,62,43,28,19,14,42,21,12,0.00,40.00,11,5,24,0.00
2013-6-24,73,61,53,31,22,11,39,23,13,0.00,40.00,12,8,32,0.00
2013-6-25,79,64,48,31,25,10,33,23,17,0.00,40.00,10,6,22,0.00
2013-6-26,84,68,49,34,30,28,46,25,14,0.00,40.00,9,6,23,0.00
2013-6-27,89,73,55,41,34,22,51,27,9,0.00,40.00,7,4,14,0.00
2013-6-28,92,75,62,41,32,26,34,22,13,0.00,40.00,8,6,17,0.00
2013-6-29,88,75,62,40,32,28,33,21,12,0.00,40.00,10,6,21,0.00
2013-6-30,85,72,57,38,32,29,40,25,15,0.00,40.00,11,6,21,0.00
2013-7-1,88,73,57,41,33,26,39,25,11,0.00,40.00,9,5,14,0.00
2013-7-2,83,71,63,46,38,30,52,31,23,0.00,40.00,15,5,33,0.02
2013-7-3,89,71,57,49,43,34,65,39,17,0.00,40.00,11,5,19,0.01
2013-7-4,88,73,65,46,40,37,49,32,18,0.00,40.00,11,5,16,0.03
2013-7-5,81,65,54,54,46,40,92,51,31,0.00,40.00,9,5,22,0.18
2013-7-6,79,62,54,53,48,42,76,60,33,0.00,40.00,7,4,14,0.18
2013-7-7,80,60,49,50,45,41,75,60,31,0.00,40.00,7,4,15,0.21
2013-7-8,81,67,53,47,40,30,72,41,20,0.00,40.00,8,5,21,0.11
2013-7-9,87,73,54,36,31,27,41,22,14,0.00,40.00,8,5,17,0.00
2013-7-10,84,71,56,39,29,-100,39,23,18,0.00,40.00,9,4,14,0.00
2013-7-11,75,64,55,56,51,38,91,63,36,0.00,40.00,8,4,22,0.01
2013-7-12,74,62,52,54,51,47,97,69,40,0.00,40.00,8,4,16,0.01
2013-7-13,78,63,50,55,50,46,89,65,40,0.00,40.00,7,3,12,0.06
2013-7-14,77,63,54,55,49,46,95,63,39,0.00,40.00,8,4,14,1.03
2013-7-15,77,63,53,54,51,48,92,67,45,0.00,40.00,5,3,10,1.03
2013-7-16,71,63,58,55,54,52,86,72,54,0.00,40.00,6,4,15,0.01
2013-7-17,75,63,53,58,52,47,84,68,46,0.00,40.00,7,3,14,0.04
2013-7-18,73,61,54,58,52,47,93,75,54,0.00,40.00,14,5,20,0.50
2013-7-19,73,62,52,55,52,46,93,69,47,0.00,40.00,9,4,12,0.27
2013-7-20,78,63,54,57,50,-100,90,66,45,0.00,40.00,11,4,20,0.39
2013-7-21,77,64,52,57,52,46,91,65,45,0.00,40.00,12,5,19,0.71
2013-7-22,67,60,53,59,53,49,92,79,65,0.00,40.00,7,4,14,0.78
2013-7-23,75,62,55,59,54,50,95,76,52,0.00,40.00,5,3,17,0.18
2013-7-24,80,66,51,55,51,48,92,61,39,0.00,40.00,6,4,13,0.12
2013-7-25,74,64,53,59,51,44,88,65,47,0.00,40.00,9,4,17,0.22
2013-7-26,73,64,59,57,52,46,83,64,43,0.00,40.00,8,4,16,0.25
2013-7-27,69,61,55,57,53,50,95,76,57,0.00,40.00,9,5,17,0.01
2013-7-28,67,58,53,59,53,45,98,85,64,0.00,40.00,14,6,30,0.41
2013-7-29,73,61,50,53,48,42,94,66,41,0.00,40.00,8,5,20,0.01
2013-7-30,77,64,48,47,43,40,75,49,29,0.00,40.00,7,4,18,0.00
2013-7-31,79,64,51,48,44,39,67,50,32,0.00,40.00,6,4,14,0.00
2013-8-1,73,63,58,60,51,46,81,66,46,0.00,40.00,8,4,16,0.25
2013-8-2,74,64,53,56,49,38,91,60,35,0.00,40.00,8,5,19,0.01
2013-8-3,79,65,54,51,46,42,72,53,29,0.00,40.00,7,4,17,0.00
2013-8-4,75,61,50,53,46,41,82,60,37,0.00,40.00,7,4,27,0.02
2013-8-5,79,62,49,46,39,31,83,46,25,0.00,40.00,7,4,15,0.02
2013-8-6,65,59,53,50,43,35,80,56,37,0.00,40.00,8,3,15,0.03
2013-8-7,70,57,49,49,46,43,87,67,43,0.00,40.00,13,5,22,0.10
2013-8-8,76,60,45,46,36,27,86,48,18,0.00,40.00,8,4,16,0.03
2013-8-9,75,62,47,36,30,25,52,32,17,0.00,40.00,8,4,30,0.00
2013-8-10,76,62,51,40,35,29,54,37,25,0.00,40.00,6,3,15,0.00
2013-8-11,72,62,55,46,41,31,65,48,33,0.00,40.00,7,4,17,0.02
2013-8-12,77,62,48,43,39,33,78,47,23,0.00,40.00,7,4,17,0.01
2013-8-13,81,62,48,39,32,-100,64,37,19,0.00,40.00,7,4,15,0.00
2013-8-14,83,63,47,43,33,24,45,34,20,0.00,40.00,9,4,18,0.00
2013-8-15,77,60,50,47,31,-100,53,38,20,0.00,40.00,7,4,18,0.00
2013-8-16,84,67,59,48,40,-100,57,41,23,0.00,40.00,8,4,15,0.00
2013-8-17,82,64,55,53,46,42,87,56,30,0.00,40.00,11,4,17,0.10
2013-8-18,75,62,48,53,45,42,82,58,35,0.00,40.00,6,3,12,0.06
2013-8-19,78,60,54,47,37,-100,68,51,32,0.00,40.00,7,4,17,0.00
2013-8-20,81,66,52,49,42,-100,70,46,24,0.00,40.00,7,4,14,0.00
2013-8-21,74,61,54,52,46,42,93,60,39,0.00,40.00,11,4,15,0.69
2013-8-22,69,59,50,56,50,45,87,72,49,0.00,40.00,8,4,12,0.02
2013-8-23,73,62,52,51,47,35,88,62,37,0.00,40.00,8,5,16,0.01
2013-8-24,65,55,47,53,44,-100,83,69,47,0.00,40.00,5,3,11,0.02
2013-8-25,58,54,51,54,50,45,98,88,77,0.00,40.00,5,2,7,0.70
2013-8-26,65,56,52,58,54,51,98,94,78,0.00,40.00,6,3,14,0.87
2013-8-27,57,53,51,52,51,49,98,92,81,0.00,40.00,7,3,18,1.36
2013-8-28,72,64,51,56,53,45,86,68,50,0.00,40.00,5,4,9,0.07
2013-8-29,75,62,49,57,51,45,92,70,52,0.00,40.00,7,4,17,0.00
2013-8-30,71,61,55,60,56,53,96,84,60,0.00,40.00,7,3,11,0.13
2013-8-31,68,57,54,62,53,-100,99,91,80,0.00,40.00,6,3,11,1.34
2013-9-1,72,60,52,59,55,51,98,84,59,0.00,40.00,8,4,13,0.01
2013-9-2,78,62,49,55,50,47,94,69,37,0.00,40.00,6,4,13,0.01
2013-9-3,76,64,53,52,49,45,76,59,41,0.00,40.00,5,4,13,0.00
2013-9-4,77,64,56,55,50,46,79,62,35,0.00,40.00,5,4,11,0.00
2013-9-5,78,62,51,53,48,44,83,62,39,0.00,40.00,7,4,11,0.00
2013-9-6,76,60,50,51,46,42,76,61,38,0.00,40.00,6,4,11,0.00
2013-9-7,71,57,50,53,46,-100,91,70,45,0.00,40.00,5,3,15,0.09
2013-9-8,57,54,51,55,52,47,98,91,71,0.00,40.00,7,3,10,0.30
2013-9-9,60,52,48,54,50,47,98,94,79,0.00,40.00,5,3,11,0.37
2013-9-10,60,51,48,54,50,47,99,95,81,0.00,40.00,5,3,9,0.73
2013-9-11,60,50,43,54,48,42,99,94,79,0.00,40.00,10,4,16,0.67
2013-9-12,63,51,40,52,46,39,97,83,62,0.00,40.00,5,3,9,0.23
2013-9-13,71,55,42,50,45,41,96,72,44,0.00,40.00,7,5,14,0.01
2013-9-14,69,54,43,50,43,-100,93,71,48,0.00,40.00,10,4,18,0.01
2013-9-15,67,53,43,52,46,41,93,79,52,0.00,40.00,7,4,14,0.14
2013-9-16,74,59,44,50,46,42,94,65,40,0.00,40.00,6,4,12,0.14
2013-9-17,73,60,47,52,46,41,88,62,40,0.00,40.00,9,5,25,0.00
2013-9-18,61,58,53,42,34,23,52,42,25,0.00,40.00,9,7,29,0.00
2013-9-19,72,56,40,37,32,27,61,42,25,0.00,40.00,8,5,14,0.00
2013-9-20,73,60,47,36,32,27,53,36,19,0.00,40.00,9,6,21,0.00
2013-9-21,69,58,53,45,39,-100,62,51,38,0.00,40.00,10,7,29,0.00
2013-9-22,57,51,43,44,31,18,74,49,22,0.00,40.00,14,9,37,0.00
2013-9-23,65,50,39,35,30,21,67,48,29,0.00,40.00,8,5,16,0.00
2013-9-24,71,57,35,34,28,22,68,35,20,0.00,40.00,9,6,21,0.00
2013-9-25,66,54,47,33,28,25,48,38,24,0.00,40.00,17,11,54,0.00
2013-9-26,56,48,40,33,26,14,65,44,25,0.00,40.00,17,12,44,0.00
2013-9-27,54,41,30,25,20,16,59,44,28,0.00,40.00,10,6,25,0.00
2013-9-28,59,41,26,25,19,-100,67,46,25,0.00,40.00,6,4,12,0.00
2013-9-29,68,53,33,28,21,15,55,31,18,0.00,40.00,11,6,19,0.00
2013-9-30,70,57,38,25,19,15,43,23,16,0.00,40.00,11,8,21,0.00
2013-10-1,67,56,50,22,20,18,31,24,18,0.00,40.00,8,6,19,0.00
2013-10-2,58,47,39,33,27,21,62,46,31,0.00,40.00,10,5,18,0.00
2013-10-3,52,46,39,39,26,14,62,45,36,0.00,40.00,13,10,13,0.00
2013-10-4,41,36,31,20,11,1,43,35,27,0.00,40.00,10,6,10,0.00
2013-10-5,42,40,37,24,17,12,50,39,35,0.00,40.00,11,7,11,0.00
2013-10-6,47,40,37,26,15,9,44,35,31,0.00,40.00,10,5,10,0.00
2013-10-7,50,42,35,29,19,8,44,39,32,0.00,40.00,11,5,11,0.00
2013-10-8,48,46,45,27,25,22,46,43,39,0.00,40.00,10,6,10,0.00
2013-10-11,48,46,43,36,30,24,62,54,45,0.00,40.00,5,3,21,0.34
2013-10-12,49,43,43,37,20,-100,63,45,38,0.00,40.00,7,5,21,0.09
2013-10-13,49,45,41,34,26,19,60,47,40,0.00,40.00,11,9,13,0.00
2013-10-14,47,44,41,33,27,22,62,52,42,0.00,40.00,5,3,14,0.00
2013-10-15,47,42,40,33,24,17,59,49,39,0.00,40.00,6,4,14,0.00
2013-10-16,48,43,40,30,24,16,60,49,37,0.00,40.00,5,4,15,0.00
2013-10-17,57,46,33,23,15,4,37,28,18,0.00,40.00,8,6,14,0.00
2013-10-18,55,42,32,22,17,11,54,37,26,0.00,40.00,9,5,15,0.00
2013-10-19,56,40,28,20,13,-100,55,36,20,0.00,40.00,6,4,11,0.00
2013-10-20,62,48,35,21,11,4,34,23,17,0.00,40.00,11,6,19,0.00
2013-10-21,58,46,33,21,16,9,40,30,22,0.00,40.00,13,7,20,0.00
2013-10-22,58,44,29,21,15,9,46,32,22,0.00,40.00,7,5,12,0.00
2013-10-23,62,48,32,21,15,6,52,27,16,0.00,40.00,7,4,12,0.00
2013-10-24,60,47,37,26,21,14,47,36,24,0.00,40.00,9,5,15,0.00
2013-10-25,57,46,39,36,30,25,67,55,42,0.00,40.00,9,5,15,0.00
2013-10-26,61,44,32,28,23,-100,73,47,26,0.00,40.00,9,6,13,0.00
2013-10-27,61,46,31,28,24,20,70,45,27,0.00,40.00,10,6,33,0.00
2013-10-28,45,41,38,27,21,-100,63,48,38,0.00,40.00,13,10,37,0.00
2013-10-29,42,34,29,30,23,16,89,66,42,0.00,40.00,14,8,38,0.01
2013-10-30,41,30,25,29,23,19,92,74,47,0.00,40.00,8,4,21,0.03
2013-10-31,48,35,23,28,21,15,82,59,42,0.00,40.00,9,5,14,0.03
2013-11-1,54,39,30,26,20,7,66,47,26,0.00,40.00,7,4,12,0.00
2013-11-2,60,46,31,22,12,-100,46,27,17,0.00,40.00,8,5,19,0.00
2013-11-3,56,42,30,21,15,9,49,34,21,0.00,40.00,13,8,39,0.00
2013-11-4,43,34,25,23,17,11,72,51,37,0.00,40.00,9,4,24,0.00
2013-11-5,41,29,21,23,16,3,83,58,36,0.00,40.00,7,4,13,0.00
2013-11-6,48,34,18,13,3,-12,44,28,14,0.00,40.00,9,5,12,0.00
2013-11-7,54,42,33,12,8,3,33,25,18,0.00,40.00,7,5,13,0.00
2013-11-8,61,45,32,13,8,3,36,23,13,0.00,40.00,11,5,19,0.00
2013-11-9,61,43,30,21,12,-100,49,31,17,0.00,40.00,8,4,16,0.00
2013-11-10,58,42,29,22,19,13,57,41,24,0.00,40.00,6,4,11,0.00
2013-11-11,59,45,31,19,15,9,56,32,14,0.00,40.00,9,5,14,0.00
2013-11-12,56,48,42,16,12,8,30,23,18,0.00,40.00,9,5,20,0.00
2013-11-13,58,46,32,24,18,13,51,33,27,0.00,40.00,8,5,13,0.00
2013-11-14,57,44,34,24,16,11,47,32,22,0.00,40.00,13,7,28,0.00
2013-11-15,47,40,35,31,24,14,81,55,32,0.00,40.00,15,9,36,0.04
2013-11-16,42,34,32,31,26,-100,96,75,52,0.00,40.00,16,11,37,0.01
2013-11-17,50,35,27,34,29,23,94,79,44,0.00,40.00,10,5,23,0.00
2013-11-18,53,37,25,32,25,20,89,66,36,0.00,40.00,6,4,12,0.00
2013-11-19,48,39,29,34,31,25,87,72,53,0.00,40.00,10,6,27,0.00
2013-11-20,37,32,27,34,30,24,99,92,71,0.00,40.00,9,4,17,0.17
2013-11-21,36,34,31,36,34,31,100,100,99,0.00,40.00,9,6,20,0.23
2013-11-22,31,29,27,31,29,26,100,98,96,0.00,40.00,14,8,35,0.07
2013-11-23,30,28,27,30,26,-100,99,96,93,0.00,40.00,11,6,23,0.00
2013-11-24,34,27,23,32,26,21,97,94,88,0.00,40.00,6,2,10,0.17
2013-11-25,42,31,23,32,23,15,93,74,43,0.00,40.00,7,4,15,0.34
2013-11-26,46,36,31,22,18,14,61,49,37,0.00,40.00,9,6,21,0.01
2013-11-27,41,32,28,25,19,12,78,58,41,0.00,40.00,8,5,17,0.01
2013-11-28,44,32,22,30,21,16,81,65,44,0.00,40.00,9,4,13,0.00
2013-11-29,46,30,18,28,21,14,85,69,43,0.00,40.00,5,4,10,0.00
2013-11-30,47,30,21,27,20,-100,90,69,38,0.00,40.00,6,4,10,0.00
2013-12-1,47,34,23,20,15,2,83,50,18,0.00,40.00,5,4,8,0.00
2013-12-2,55,44,34,19,15,10,47,31,17,0.00,40.00,17,8,34,0.00
2013-12-3,42,36,31,25,18,11,74,50,31,0.00,40.00,19,12,40,0.00
2013-12-4,31,19,0,30,12,-7,97,74,45,0.00,40.00,16,10,59,0.00
2013-12-5,25,10,-1,9,-1,-10,83,62,29,0.00,40.00,8,5,18,0.00
2013-12-6,27,14,0,4,-3,-10,67,47,28,0.00,40.00,11,5,16,0.00
2013-12-7,19,16,13,17,10,-100,91,82,65,0.00,40.00,18,10,46,0.00
2013-12-8,22,11,-3,18,7,-9,89,83,75,0.00,40.00,18,8,43,0.00
2013-12-9,22,8,-3,15,-1,-10,80,70,34,0.00,40.00,12,5,20,0.00
2013-12-10,42,25,9,6,-1,-8,59,36,16,0.00,40.00,10,5,14,0.03
2013-12-11,42,26,11,2,-7,-18,58,29,9,0.00,40.00,11,6,17,0.01
2013-12-12,46,35,28,25,17,-10,83,51,16,0.00,40.00,8,5,14,0.00
2013-12-13,41,33,25,27,17,6,84,54,37,0.00,40.00,10,5,18,0.00
2013-12-14,42,29,21,18,6,-100,58,41,26,0.00,40.00,7,4,18,0.00
2013-12-15,53,39,28,16,12,2,48,33,22,0.00,40.00,7,4,15,0.00
2013-12-16,57,43,31,19,10,0,45,27,17,0.00,40.00,12,6,16,0.00
2013-12-17,55,40,29,20,11,6,42,31,17,0.00,40.00,9,5,12,0.00
2013-12-18,54,39,28,17,11,4,47,33,13,0.00,40.00,13,5,23,0.00
2013-12-19,40,33,26,26,18,15,94,56,36,0.00,40.00,13,7,32,0.00
2013-12-20,34,27,22,28,24,16,97,89,64,0.00,40.00,7,3,14,0.06
2013-12-21,35,26,18,24,13,-100,89,62,41,0.00,40.00,6,4,14,0.01
2013-12-22,36,25,14,16,9,-2,69,52,26,0.00,40.00,10,4,15,0.03
2013-12-23,41,30,24,21,16,13,69,57,43,0.00,40.00,11,7,17,0.03
2013-12-24,53,36,26,21,16,10,65,47,26,0.00,40.00,8,5,16,0.00
2013-12-25,43,33,24,15,-4,-15,60,23,11,0.00,40.00,8,5,20,0.00
2013-12-26,49,38,31,-3,-10,-16,22,13,8,0.00,40.00,10,6,20,0.00
2013-12-27,48,38,26,17,9,-6,60,31,18,0.00,40.00,13,7,20,0.00
2013-12-28,41,33,24,15,12,-100,63,43,32,0.00,40.00,9,5,18,0.00
2013-12-29,36,28,21,12,1,-18,54,33,13,0.00,40.00,11,6,19,0.00
2013-12-30,48,35,25,15,6,-20,62,32,11,0.00,40.00,8,4,12,0.00
2013-12-31,51,41,25,18,14,10,61,35,22,0.00,40.00,9,6,15,0.00
2014-1-1,49,38,34,16,8,-16,48,30,10,0.00,40.00,8,5,16,0.00
2014-1-2,51,37,23,4,-8,-24,35,16,5,0.00,40.00,7,5,12,0.00